Lachine, MI

3:30 AM EDT on May 05, 2015 (GMT -0400)
Alpena County Regional | | Change Station
CLOSE
Current Station
Airport
Location: Alpena,
Elevation: 689 ft
Nearby Weather Stations

Elev 689 ft 45.07 °N, 83.56 °W | Updated 36 minutes ago

Clear
Clear
45 °F
Feels Like 41 °F
N
7
Wind Variable Wind from NW

Today
High -- | Low -- °F
--% Chance of Precip.
Yesterday
High -- | Low -- °F
Precip. -- in
6:18 AM 8:45 PM
Full, 99% visible
Pressure 30.28 in
Visibility 10.0 miles
Clouds Clear
Windchill 41 °F
Dew Point 35 °F
Humidity 68%
Rainfall 0.00 in
Snow Depth Not available.
UV 0 out of 12
Pollen 8.80 out of 12
Air Quality Not available.
Flu Activity Regional
METAR KAPN 050654Z AUTO 32006KT 10SM CLR 07/02 A3027 RMK AO2 SLP252 T00720017

More Conditions Fewer Conditions

Pressure 30.28 in
Visibility 10.0 miles
Clouds Clear
Windchill 41 °F
Dew Point 35 °F
Humidity 68%
Rainfall 0.00 in
Snow Depth Not available.
UV 0 out of 12
Pollen 8.80 out of 12
Air Quality Not available.
Flu Activity Regional
METAR KAPN 050654Z AUTO 32006KT 10SM CLR 07/02 A3027 RMK AO2 SLP252 T00720017

More Conditions Fewer Conditions

Nepal has a long way to go to dig out and rebuild from a devastating earthquake. We have teamed up with several charities and organizations to make contributing to the relief effort as easy as possible.
How you can help: Portlight Strategies | Red Cross
Nowcast | as of 3:00 am EDT on May 5, 2015

At 4 am...mostly clear. Temperature 40. Northwest winds 9 mph. At 6 am...partly cloudy. Temperature 38. Northwest winds 6 mph. At 8 am...partly cloudy. Temperature 43. Northwest winds 5 mph. At 10 am...partly cloudy. Temperature 52. Northeast winds 5 mph.

×

10-Day Weather Forecast

Almanac

Astronomy

May. 05, 2015 Rise Set
Actual Time
Civil Twilight
Nautical Twilight
Astronomical Twilight
Moon
Length of Visible Light
Length of Day
Tomorrow will be .
, % of the Moon is Illuminated

Today's Extremes

State Highs State Lows

Community

WunderPhotos

Upload Photos

1,818,814 photos uploaded!

WunderBlogs® & News

Nearby

Air Quality

  Air Quality AQ Index Pollutant
Not available.

Snow Depth

Station Depth Elevation

Earthquake Activity

City Distance Mag. Time & Date
Minimum magnitude displayed is 2.5.

Coastal Water Temperatures

Place Temperature

Stations

Nearby Weather Stations

Station Location Temp. Windchill Dew Point Humidity Wind Precip. Elev Updated Type